ENZV/SVG METAR and TAF weather

Enter ICAO airport designator
Station Type Date Time Source
ENZV METAR 2021/04/13 06:20 UTC NOAA

ENZV 130620Z 34012KT CAVOK 04/M03 Q1022 TEMPO 33018G28KT


Station Type Date Time Source
ENZV Decoded METAR 2021/04/13 06:20 UTC NOAA

Stavanger / Sola, Norway (ENZV) 58-53N 005-38E 9M
Apr 13, 2021 - 02:20 AM EDT / 2021.04.13 0620 UTC
Wind: from the NNW (340 degrees) at 14 MPH (12 KT):0
Visibility: greater than 7 mile(s):0
Temperature: 39 F (4 C)
Dew Point: 26 F (-3 C)
Relative Humidity: 60%
Pressure (altimeter): 30.18 in. Hg (1022 hPa)
ob: ENZV 130620Z 34012KT CAVOK 04/M03 Q1022 TEMPO 33018G28KT
cycle: 6

Station Type Date Time Source
ENZV TAF 2021/04/13 06:58 UTC NOAA

TAF COR ENZV 1306/1406 34015KT CAVOK
TEMPO 1309/1318 34018G28KT
BECMG 1322/1324 36005KT

Example: see airport list